Azle, Texas
Current Conditions -  °F | °C
As of 7:52 AM on Sunday 23 Nov 2014 (Local Time) from KNFW Reporting Station
Few Clouds Few Clouds  
Wind Chill: 16°   Ceiling: Unl
Heat Index: 16°   Visibility: 10mi
Dew Point: 10°   Wind: 8mph
Humidity: 69%   Direction: 150°SSE
Pressure: 29.61"   Gusts: NA
Location:  32.88°N, 97.54°W
Report Text: KNFW 231352Z 15007KT 10SM FEW200 16/10 A2961 RMK AO2 SLP013 T01560100 $
Loading
Personal Weather Stations






























Interactive Weather Map New forecast layout! Learn more

10-Day Weather Forecast

Advertisements
Track Severe Weather on mobile